sensor_id;sensor_type;location;lat;lon;timestamp;P1;durP1;ratioP1;P2;durP2;ratioP2
9304;SDS011;4690;52.422;13.486;2022-10-30T00:06:08;18.20;;;15.23;;
9304;SDS011;4690;52.422;13.486;2022-10-30T00:08:34;16.02;;;13.38;;
9304;SDS011;4690;52.422;13.486;2022-10-30T00:11:12;16.02;;;14.32;;
9304;SDS011;4690;52.422;13.486;2022-10-30T00:13:38;16.17;;;14.52;;
9304;SDS011;4690;52.422;13.486;2022-10-30T00:16:04;16.08;;;14.38;;
9304;SDS011;4690;52.422;13.486;2022-10-30T00:18:33;17.17;;;14.65;;
9304;SDS011;4690;52.422;13.486;2022-10-30T00:21:11;18.17;;;14.50;;
9304;SDS011;4690;52.422;13.486;2022-10-30T00:23:43;17.40;;;13.63;;
9304;SDS011;4690;52.422;13.486;2022-10-30T00:26:11;15.23;;;13.38;;
9304;SDS011;4690;52.422;13.486;2022-10-30T00:28:37;13.63;;;12.32;;
9304;SDS011;4690;52.422;13.486;2022-10-30T00:31:03;15.85;;;14.15;;
9304;SDS011;4690;52.422;13.486;2022-10-30T00:33:29;14.50;;;13.00;;
9304;SDS011;4690;52.422;13.486;2022-10-30T00:35:56;15.02;;;13.40;;
9304;SDS011;4690;52.422;13.486;2022-10-30T00:38:22;15.80;;;14.13;;
9304;SDS011;4690;52.422;13.486;2022-10-30T00:40:48;15.50;;;13.17;;
9304;SDS011;4690;52.422;13.486;2022-10-30T00:49:06;14.73;;;13.17;;
9304;SDS011;4690;52.422;13.486;2022-10-30T00:51:41;16.13;;;14.43;;
9304;SDS011;4690;52.422;13.486;2022-10-30T00:54:14;15.90;;;14.33;;
9304;SDS011;4690;52.422;13.486;2022-10-30T00:56:43;16.00;;;14.40;;
9304;SDS011;4690;52.422;13.486;2022-10-30T00:59:14;16.38;;;14.00;;
9304;SDS011;4690;52.422;13.486;2022-10-30T01:01:47;17.23;;;14.07;;
9304;SDS011;4690;52.422;13.486;2022-10-30T01:04:13;16.43;;;13.67;;
9304;SDS011;4690;52.422;13.486;2022-10-30T01:06:41;15.37;;;13.77;;
9304;SDS011;4690;52.422;13.486;2022-10-30T01:09:12;16.73;;;13.50;;
9304;SDS011;4690;52.422;13.486;2022-10-30T01:11:39;17.40;;;14.77;;
9304;SDS011;4690;52.422;13.486;2022-10-30T01:14:06;17.80;;;15.57;;
9304;SDS011;4690;52.422;13.486;2022-10-30T01:16:40;18.47;;;15.53;;
9304;SDS011;4690;52.422;13.486;2022-10-30T01:19:57;19.77;;;16.53;;
9304;SDS011;4690;52.422;13.486;2022-10-30T01:25:28;22.17;;;16.13;;
9304;SDS011;4690;52.422;13.486;2022-10-30T01:35:03;23.03;;;18.60;;
9304;SDS011;4690;52.422;13.486;2022-10-30T01:37:46;22.00;;;17.67;;
9304;SDS011;4690;52.422;13.486;2022-10-30T01:40:21;21.40;;;18.80;;
9304;SDS011;4690;52.422;13.486;2022-10-30T01:42:51;23.83;;;17.97;;
9304;SDS011;4690;52.422;13.486;2022-10-30T01:54:13;22.93;;;19.30;;
9304;SDS011;4690;52.422;13.486;2022-10-30T01:59:57;21.33;;;17.67;;
9304;SDS011;4690;52.422;13.486;2022-10-30T02:02:26;19.43;;;17.50;;
9304;SDS011;4690;52.422;13.486;2022-10-30T02:04:53;19.93;;;17.50;;
9304;SDS011;4690;52.422;13.486;2022-10-30T02:07:19;20.43;;;18.43;;
9304;SDS011;4690;52.422;13.486;2022-10-30T02:09:45;20.10;;;17.97;;
9304;SDS011;4690;52.422;13.486;2022-10-30T02:12:11;22.73;;;18.57;;
9304;SDS011;4690;52.422;13.486;2022-10-30T02:14:41;21.53;;;17.70;;
9304;SDS011;4690;52.422;13.486;2022-10-30T02:17:11;20.43;;;18.00;;
9304;SDS011;4690;52.422;13.486;2022-10-30T02:19:37;20.17;;;17.97;;
9304;SDS011;4690;52.422;13.486;2022-10-30T02:22:03;18.47;;;16.43;;
9304;SDS011;4690;52.422;13.486;2022-10-30T02:24:29;19.77;;;17.00;;
9304;SDS011;4690;52.422;13.486;2022-10-30T02:26:56;21.77;;;17.20;;
9304;SDS011;4690;52.422;13.486;2022-10-30T02:29:21;20.77;;;16.43;;
9304;SDS011;4690;52.422;13.486;2022-10-30T02:31:47;16.57;;;14.87;;
9304;SDS011;4690;52.422;13.486;2022-10-30T02:34:13;16.57;;;14.93;;
9304;SDS011;4690;52.422;13.486;2022-10-30T02:36:40;19.70;;;16.73;;
9304;SDS011;4690;52.422;13.486;2022-10-30T02:39:06;19.80;;;17.13;;
9304;SDS011;4690;52.422;13.486;2022-10-30T02:41:32;21.63;;;17.67;;
9304;SDS011;4690;52.422;13.486;2022-10-30T02:43:57;21.10;;;17.70;;
9304;SDS011;4690;52.422;13.486;2022-10-30T02:46:23;23.07;;;16.73;;
9304;SDS011;4690;52.422;13.486;2022-10-30T02:48:49;21.93;;;17.33;;
9304;SDS011;4690;52.422;13.486;2022-10-30T02:51:15;22.23;;;17.87;;
9304;SDS011;4690;52.422;13.486;2022-10-30T02:53:41;22.13;;;18.37;;
9304;SDS011;4690;52.422;13.486;2022-10-30T02:56:08;24.60;;;18.50;;
9304;SDS011;4690;52.422;13.486;2022-10-30T02:58:37;21.97;;;17.63;;
9304;SDS011;4690;52.422;13.486;2022-10-30T03:01:04;22.70;;;18.27;;
9304;SDS011;4690;52.422;13.486;2022-10-30T03:03:39;23.53;;;18.57;;
9304;SDS011;4690;52.422;13.486;2022-10-30T03:06:06;24.50;;;19.03;;
9304;SDS011;4690;52.422;13.486;2022-10-30T03:08:35;26.97;;;19.07;;
9304;SDS011;4690;52.422;13.486;2022-10-30T03:11:06;21.40;;;18.00;;
9304;SDS011;4690;52.422;13.486;2022-10-30T03:13:40;20.10;;;17.63;;
9304;SDS011;4690;52.422;13.486;2022-10-30T03:16:15;19.53;;;17.33;;
9304;SDS011;4690;52.422;13.486;2022-10-30T03:18:56;24.90;;;18.57;;
9304;SDS011;4690;52.422;13.486;2022-10-30T03:21:22;22.10;;;18.00;;
9304;SDS011;4690;52.422;13.486;2022-10-30T03:23:51;21.07;;;18.10;;
9304;SDS011;4690;52.422;13.486;2022-10-30T03:26:18;22.80;;;18.10;;
9304;SDS011;4690;52.422;13.486;2022-10-30T03:28:45;21.07;;;17.93;;
9304;SDS011;4690;52.422;13.486;2022-10-30T03:31:12;24.93;;;18.07;;
9304;SDS011;4690;52.422;13.486;2022-10-30T03:33:41;22.17;;;18.33;;
9304;SDS011;4690;52.422;13.486;2022-10-30T03:36:07;23.83;;;17.27;;
9304;SDS011;4690;52.422;13.486;2022-10-30T03:38:35;24.30;;;18.03;;
9304;SDS011;4690;52.422;13.486;2022-10-30T03:41:02;23.20;;;16.50;;
9304;SDS011;4690;52.422;13.486;2022-10-30T03:43:28;22.47;;;18.97;;
9304;SDS011;4690;52.422;13.486;2022-10-30T03:45:55;26.67;;;19.00;;
9304;SDS011;4690;52.422;13.486;2022-10-30T03:48:25;19.03;;;16.77;;
9304;SDS011;4690;52.422;13.486;2022-10-30T03:50:54;17.23;;;15.13;;
9304;SDS011;4690;52.422;13.486;2022-10-30T03:53:21;21.53;;;16.87;;
9304;SDS011;4690;52.422;13.486;2022-10-30T03:55:50;17.50;;;15.67;;
9304;SDS011;4690;52.422;13.486;2022-10-30T03:58:17;18.30;;;15.83;;
9304;SDS011;4690;52.422;13.486;2022-10-30T04:00:43;19.77;;;15.77;;
9304;SDS011;4690;52.422;13.486;2022-10-30T04:03:09;19.33;;;16.70;;
9304;SDS011;4690;52.422;13.486;2022-10-30T04:05:35;16.30;;;13.97;;
9304;SDS011;4690;52.422;13.486;2022-10-30T04:08:03;19.27;;;14.70;;
9304;SDS011;4690;52.422;13.486;2022-10-30T04:10:33;18.10;;;15.47;;
9304;SDS011;4690;52.422;13.486;2022-10-30T04:12:59;18.30;;;14.70;;
9304;SDS011;4690;52.422;13.486;2022-10-30T04:15:26;19.17;;;14.93;;
9304;SDS011;4690;52.422;13.486;2022-10-30T04:17:52;21.20;;;16.97;;
9304;SDS011;4690;52.422;13.486;2022-10-30T04:20:18;20.63;;;15.97;;
9304;SDS011;4690;52.422;13.486;2022-10-30T04:22:46;21.07;;;15.87;;
9304;SDS011;4690;52.422;13.486;2022-10-30T04:25:11;18.37;;;15.60;;
9304;SDS011;4690;52.422;13.486;2022-10-30T04:27:38;19.27;;;16.17;;
9304;SDS011;4690;52.422;13.486;2022-10-30T04:30:05;21.00;;;16.37;;
9304;SDS011;4690;52.422;13.486;2022-10-30T04:32:33;18.73;;;16.37;;
9304;SDS011;4690;52.422;13.486;2022-10-30T04:34:59;17.60;;;14.47;;
9304;SDS011;4690;52.422;13.486;2022-10-30T04:37:24;21.60;;;17.73;;
9304;SDS011;4690;52.422;13.486;2022-10-30T04:39:50;23.77;;;16.47;;
9304;SDS011;4690;52.422;13.486;2022-10-30T04:42:16;20.60;;;16.20;;
9304;SDS011;4690;52.422;13.486;2022-10-30T04:44:41;18.97;;;14.73;;
9304;SDS011;4690;52.422;13.486;2022-10-30T04:47:07;20.40;;;15.43;;
9304;SDS011;4690;52.422;13.486;2022-10-30T04:49:32;15.80;;;14.23;;
9304;SDS011;4690;52.422;13.486;2022-10-30T04:51:58;17.10;;;14.13;;
9304;SDS011;4690;52.422;13.486;2022-10-30T04:54:24;19.00;;;14.73;;
9304;SDS011;4690;52.422;13.486;2022-10-30T04:56:49;18.83;;;15.27;;
9304;SDS011;4690;52.422;13.486;2022-10-30T04:59:15;20.13;;;15.67;;
9304;SDS011;4690;52.422;13.486;2022-10-30T05:01:41;20.50;;;16.23;;
9304;SDS011;4690;52.422;13.486;2022-10-30T05:04:06;20.50;;;15.57;;
9304;SDS011;4690;52.422;13.486;2022-10-30T05:06:32;19.20;;;15.33;;
9304;SDS011;4690;52.422;13.486;2022-10-30T05:08:58;21.02;;;16.13;;
9304;SDS011;4690;52.422;13.486;2022-10-30T05:11:24;19.33;;;15.90;;
9304;SDS011;4690;52.422;13.486;2022-10-30T05:13:50;19.53;;;13.93;;
9304;SDS011;4690;52.422;13.486;2022-10-30T05:16:15;24.83;;;15.13;;
9304;SDS011;4690;52.422;13.486;2022-10-30T05:18:41;20.60;;;15.90;;
9304;SDS011;4690;52.422;13.486;2022-10-30T05:21:07;19.73;;;15.50;;
9304;SDS011;4690;52.422;13.486;2022-10-30T05:23:33;22.17;;;15.73;;
9304;SDS011;4690;52.422;13.486;2022-10-30T05:25:59;20.60;;;16.27;;
9304;SDS011;4690;52.422;13.486;2022-10-30T05:28:25;20.77;;;16.40;;
9304;SDS011;4690;52.422;13.486;2022-10-30T05:30:53;19.60;;;16.07;;
9304;SDS011;4690;52.422;13.486;2022-10-30T05:33:19;20.00;;;15.63;;
9304;SDS011;4690;52.422;13.486;2022-10-30T05:35:45;19.70;;;17.13;;
9304;SDS011;4690;52.422;13.486;2022-10-30T05:38:11;20.23;;;15.77;;
9304;SDS011;4690;52.422;13.486;2022-10-30T05:40:37;17.93;;;14.90;;
9304;SDS011;4690;52.422;13.486;2022-10-30T05:43:03;19.37;;;15.53;;
9304;SDS011;4690;52.422;13.486;2022-10-30T05:45:30;20.43;;;15.73;;
9304;SDS011;4690;52.422;13.486;2022-10-30T05:47:56;17.47;;;15.63;;
9304;SDS011;4690;52.422;13.486;2022-10-30T05:50:25;18.07;;;15.40;;
9304;SDS011;4690;52.422;13.486;2022-10-30T05:52:56;22.33;;;17.23;;
9304;SDS011;4690;52.422;13.486;2022-10-30T05:55:23;26.55;;;19.63;;
9304;SDS011;4690;52.422;13.486;2022-10-30T05:57:49;26.42;;;17.55;;
9304;SDS011;4690;52.422;13.486;2022-10-30T06:00:23;21.93;;;16.90;;
9304;SDS011;4690;52.422;13.486;2022-10-30T06:02:51;18.02;;;15.85;;
9304;SDS011;4690;52.422;13.486;2022-10-30T06:05:17;19.23;;;15.33;;
9304;SDS011;4690;52.422;13.486;2022-10-30T06:07:42;25.48;;;17.45;;
9304;SDS011;4690;52.422;13.486;2022-10-30T06:10:08;25.90;;;17.47;;
9304;SDS011;4690;52.422;13.486;2022-10-30T06:12:34;23.10;;;16.73;;
9304;SDS011;4690;52.422;13.486;2022-10-30T06:14:59;22.30;;;16.37;;
9304;SDS011;4690;52.422;13.486;2022-10-30T06:17:25;22.20;;;17.97;;
9304;SDS011;4690;52.422;13.486;2022-10-30T06:19:54;22.90;;;16.70;;
9304;SDS011;4690;52.422;13.486;2022-10-30T06:22:20;23.37;;;16.63;;
9304;SDS011;4690;52.422;13.486;2022-10-30T06:24:45;21.23;;;16.13;;
9304;SDS011;4690;52.422;13.486;2022-10-30T06:27:11;23.17;;;15.93;;
9304;SDS011;4690;52.422;13.486;2022-10-30T06:29:37;20.37;;;15.63;;
9304;SDS011;4690;52.422;13.486;2022-10-30T06:32:03;24.00;;;15.80;;
9304;SDS011;4690;52.422;13.486;2022-10-30T06:34:28;19.53;;;13.90;;
9304;SDS011;4690;52.422;13.486;2022-10-30T06:36:54;17.20;;;13.30;;
9304;SDS011;4690;52.422;13.486;2022-10-30T06:39:20;19.17;;;14.57;;
9304;SDS011;4690;52.422;13.486;2022-10-30T06:41:45;18.17;;;14.75;;
9304;SDS011;4690;52.422;13.486;2022-10-30T06:44:11;22.00;;;15.65;;
9304;SDS011;4690;52.422;13.486;2022-10-30T06:46:38;18.23;;;14.98;;
9304;SDS011;4690;52.422;13.486;2022-10-30T06:49:03;21.25;;;15.32;;
9304;SDS011;4690;52.422;13.486;2022-10-30T06:51:29;24.48;;;15.30;;
9304;SDS011;4690;52.422;13.486;2022-10-30T06:53:56;23.33;;;15.75;;
9304;SDS011;4690;52.422;13.486;2022-10-30T06:56:21;22.40;;;15.55;;
9304;SDS011;4690;52.422;13.486;2022-10-30T06:58:47;17.70;;;14.75;;
9304;SDS011;4690;52.422;13.486;2022-10-30T07:01:12;20.75;;;14.38;;
9304;SDS011;4690;52.422;13.486;2022-10-30T07:03:38;19.50;;;13.60;;
9304;SDS011;4690;52.422;13.486;2022-10-30T07:06:04;17.92;;;13.93;;
9304;SDS011;4690;52.422;13.486;2022-10-30T07:08:30;18.85;;;13.98;;
9304;SDS011;4690;52.422;13.486;2022-10-30T07:10:56;19.88;;;14.70;;
9304;SDS011;4690;52.422;13.486;2022-10-30T07:13:22;20.13;;;14.15;;
9304;SDS011;4690;52.422;13.486;2022-10-30T07:15:48;16.67;;;14.05;;
9304;SDS011;4690;52.422;13.486;2022-10-30T07:18:14;19.17;;;13.85;;
9304;SDS011;4690;52.422;13.486;2022-10-30T07:20:39;17.65;;;12.73;;
9304;SDS011;4690;52.422;13.486;2022-10-30T07:23:05;17.60;;;13.70;;
9304;SDS011;4690;52.422;13.486;2022-10-30T07:25:31;17.77;;;13.75;;
9304;SDS011;4690;52.422;13.486;2022-10-30T07:27:56;15.90;;;13.18;;
9304;SDS011;4690;52.422;13.486;2022-10-30T07:30:23;15.73;;;12.43;;
9304;SDS011;4690;52.422;13.486;2022-10-30T07:32:57;16.92;;;12.43;;
9304;SDS011;4690;52.422;13.486;2022-10-30T07:35:28;17.23;;;12.52;;
9304;SDS011;4690;52.422;13.486;2022-10-30T07:38:00;15.40;;;11.77;;
9304;SDS011;4690;52.422;13.486;2022-10-30T07:40:30;19.38;;;13.00;;
9304;SDS011;4690;52.422;13.486;2022-10-30T07:42:58;13.90;;;11.77;;
9304;SDS011;4690;52.422;13.486;2022-10-30T07:45:26;17.10;;;12.30;;
9304;SDS011;4690;52.422;13.486;2022-10-30T07:47:52;15.80;;;12.15;;
9304;SDS011;4690;52.422;13.486;2022-10-30T07:50:18;16.30;;;11.50;;
9304;SDS011;4690;52.422;13.486;2022-10-30T07:52:44;13.60;;;11.77;;
9304;SDS011;4690;52.422;13.486;2022-10-30T07:55:10;16.25;;;12.60;;
9304;SDS011;4690;52.422;13.486;2022-10-30T07:57:39;23.25;;;13.68;;
9304;SDS011;4690;52.422;13.486;2022-10-30T08:00:08;16.48;;;11.15;;
9304;SDS011;4690;52.422;13.486;2022-10-30T08:02:36;16.98;;;12.45;;
9304;SDS011;4690;52.422;13.486;2022-10-30T08:05:03;14.23;;;11.35;;
9304;SDS011;4690;52.422;13.486;2022-10-30T08:07:30;15.35;;;12.52;;
9304;SDS011;4690;52.422;13.486;2022-10-30T08:09:57;17.13;;;12.02;;
9304;SDS011;4690;52.422;13.486;2022-10-30T08:12:23;16.92;;;13.48;;
9304;SDS011;4690;52.422;13.486;2022-10-30T08:14:52;15.05;;;12.10;;
9304;SDS011;4690;52.422;13.486;2022-10-30T08:17:19;15.38;;;11.75;;
9304;SDS011;4690;52.422;13.486;2022-10-30T08:19:45;16.70;;;12.30;;
9304;SDS011;4690;52.422;13.486;2022-10-30T08:22:11;12.27;;;11.07;;
9304;SDS011;4690;52.422;13.486;2022-10-30T08:24:38;16.13;;;11.25;;
9304;SDS011;4690;52.422;13.486;2022-10-30T08:27:04;16.10;;;11.77;;
9304;SDS011;4690;52.422;13.486;2022-10-30T08:29:30;17.40;;;12.32;;
9304;SDS011;4690;52.422;13.486;2022-10-30T08:31:56;17.02;;;11.70;;
9304;SDS011;4690;52.422;13.486;2022-10-30T08:34:22;21.00;;;11.45;;
9304;SDS011;4690;52.422;13.486;2022-10-30T08:36:48;16.15;;;11.23;;
9304;SDS011;4690;52.422;13.486;2022-10-30T08:39:16;12.68;;;10.75;;
9304;SDS011;4690;52.422;13.486;2022-10-30T08:41:43;19.08;;;10.27;;
9304;SDS011;4690;52.422;13.486;2022-10-30T08:44:09;14.88;;;10.27;;
9304;SDS011;4690;52.422;13.486;2022-10-30T08:46:35;15.80;;;11.10;;
9304;SDS011;4690;52.422;13.486;2022-10-30T08:49:01;14.52;;;9.75;;
9304;SDS011;4690;52.422;13.486;2022-10-30T08:51:26;16.83;;;10.93;;
9304;SDS011;4690;52.422;13.486;2022-10-30T08:53:55;19.05;;;10.40;;
9304;SDS011;4690;52.422;13.486;2022-10-30T08:56:21;17.58;;;9.70;;
9304;SDS011;4690;52.422;13.486;2022-10-30T08:58:46;16.20;;;9.77;;
9304;SDS011;4690;52.422;13.486;2022-10-30T09:01:14;20.30;;;10.40;;
9304;SDS011;4690;52.422;13.486;2022-10-30T09:03:40;18.77;;;10.68;;
9304;SDS011;4690;52.422;13.486;2022-10-30T09:06:07;21.48;;;10.43;;
9304;SDS011;4690;52.422;13.486;2022-10-30T09:08:32;15.63;;;10.40;;
9304;SDS011;4690;52.422;13.486;2022-10-30T09:10:58;16.50;;;10.65;;
9304;SDS011;4690;52.422;13.486;2022-10-30T09:13:24;17.70;;;10.20;;
9304;SDS011;4690;52.422;13.486;2022-10-30T09:15:50;15.65;;;10.02;;
9304;SDS011;4690;52.422;13.486;2022-10-30T09:18:16;14.38;;;9.88;;
9304;SDS011;4690;52.422;13.486;2022-10-30T09:20:42;16.85;;;10.27;;
9304;SDS011;4690;52.422;13.486;2022-10-30T09:23:08;17.48;;;9.65;;
9304;SDS011;4690;52.422;13.486;2022-10-30T09:25:33;17.02;;;9.63;;
9304;SDS011;4690;52.422;13.486;2022-10-30T09:27:59;16.42;;;9.80;;
9304;SDS011;4690;52.422;13.486;2022-10-30T09:30:25;16.70;;;9.77;;
9304;SDS011;4690;52.422;13.486;2022-10-30T09:32:55;20.50;;;10.10;;
9304;SDS011;4690;52.422;13.486;2022-10-30T09:35:23;15.73;;;9.70;;
9304;SDS011;4690;52.422;13.486;2022-10-30T09:37:48;13.35;;;9.10;;
9304;SDS011;4690;52.422;13.486;2022-10-30T09:40:22;13.65;;;9.00;;
9304;SDS011;4690;52.422;13.486;2022-10-30T09:43:21;11.15;;;9.10;;
9304;SDS011;4690;52.422;13.486;2022-10-30T09:46:04;12.20;;;8.95;;
9304;SDS011;4690;52.422;13.486;2022-10-30T09:48:56;12.88;;;8.20;;
9304;SDS011;4690;52.422;13.486;2022-10-30T09:57:28;13.30;;;8.10;;
9304;SDS011;4690;52.422;13.486;2022-10-30T10:00:14;18.70;;;8.85;;
9304;SDS011;4690;52.422;13.486;2022-10-30T10:02:51;13.25;;;7.95;;
9304;SDS011;4690;52.422;13.486;2022-10-30T10:08:21;15.68;;;8.52;;
9304;SDS011;4690;52.422;13.486;2022-10-30T10:10:59;17.88;;;8.30;;
9304;SDS011;4690;52.422;13.486;2022-10-30T10:16:32;11.00;;;8.38;;
9304;SDS011;4690;52.422;13.486;2022-10-30T10:21:54;14.60;;;8.18;;
9304;SDS011;4690;52.422;13.486;2022-10-30T10:24:33;12.40;;;7.65;;
9304;SDS011;4690;52.422;13.486;2022-10-30T10:30:13;14.43;;;8.52;;
9304;SDS011;4690;52.422;13.486;2022-10-30T10:36:04;10.90;;;7.05;;
9304;SDS011;4690;52.422;13.486;2022-10-30T10:39:05;16.38;;;7.57;;
9304;SDS011;4690;52.422;13.486;2022-10-30T10:42:04;15.50;;;8.20;;
9304;SDS011;4690;52.422;13.486;2022-10-30T10:48:32;11.07;;;7.35;;
9304;SDS011;4690;52.422;13.486;2022-10-30T10:51:00;14.45;;;7.25;;
9304;SDS011;4690;52.422;13.486;2022-10-30T10:54:02;13.77;;;7.07;;
9304;SDS011;4690;52.422;13.486;2022-10-30T10:56:47;14.00;;;6.95;;
9304;SDS011;4690;52.422;13.486;2022-10-30T10:59:17;9.85;;;6.38;;
9304;SDS011;4690;52.422;13.486;2022-10-30T11:01:55;13.05;;;6.40;;
9304;SDS011;4690;52.422;13.486;2022-10-30T11:04:35;14.13;;;7.07;;
9304;SDS011;4690;52.422;13.486;2022-10-30T11:07:25;12.05;;;7.03;;
9304;SDS011;4690;52.422;13.486;2022-10-30T11:09:57;15.88;;;7.40;;
9304;SDS011;4690;52.422;13.486;2022-10-30T11:12:27;9.32;;;6.25;;
9304;SDS011;4690;52.422;13.486;2022-10-30T11:15:00;11.75;;;6.45;;
9304;SDS011;4690;52.422;13.486;2022-10-30T11:18:07;15.98;;;7.38;;
9304;SDS011;4690;52.422;13.486;2022-10-30T11:20:41;16.83;;;6.07;;
9304;SDS011;4690;52.422;13.486;2022-10-30T11:23:33;10.80;;;6.20;;
9304;SDS011;4690;52.422;13.486;2022-10-30T11:29:03;10.82;;;6.38;;
9304;SDS011;4690;52.422;13.486;2022-10-30T11:31:38;13.23;;;6.53;;
9304;SDS011;4690;52.422;13.486;2022-10-30T11:36:44;11.90;;;6.30;;
9304;SDS011;4690;52.422;13.486;2022-10-30T11:39:23;14.82;;;6.43;;
9304;SDS011;4690;52.422;13.486;2022-10-30T11:42:13;10.93;;;6.00;;
9304;SDS011;4690;52.422;13.486;2022-10-30T11:44:49;11.73;;;6.57;;
9304;SDS011;4690;52.422;13.486;2022-10-30T11:47:16;13.32;;;6.75;;
9304;SDS011;4690;52.422;13.486;2022-10-30T11:49:53;14.13;;;6.95;;
9304;SDS011;4690;52.422;13.486;2022-10-30T11:52:26;10.05;;;6.63;;
9304;SDS011;4690;52.422;13.486;2022-10-30T11:54:57;10.68;;;6.30;;
9304;SDS011;4690;52.422;13.486;2022-10-30T11:57:40;11.02;;;6.22;;
9304;SDS011;4690;52.422;13.486;2022-10-30T12:00:15;16.10;;;6.90;;
9304;SDS011;4690;52.422;13.486;2022-10-30T12:02:43;9.73;;;6.15;;
9304;SDS011;4690;52.422;13.486;2022-10-30T12:13:20;12.23;;;5.93;;
9304;SDS011;4690;52.422;13.486;2022-10-30T12:15:49;12.52;;;5.95;;
9304;SDS011;4690;52.422;13.486;2022-10-30T12:18:30;19.92;;;6.43;;
9304;SDS011;4690;52.422;13.486;2022-10-30T12:20:57;13.68;;;5.78;;
9304;SDS011;4690;52.422;13.486;2022-10-30T12:23:24;13.13;;;5.90;;
9304;SDS011;4690;52.422;13.486;2022-10-30T12:26:14;13.05;;;5.53;;
9304;SDS011;4690;52.422;13.486;2022-10-30T12:28:39;9.10;;;5.88;;
9304;SDS011;4690;52.422;13.486;2022-10-30T12:31:16;12.32;;;5.30;;
9304;SDS011;4690;52.422;13.486;2022-10-30T12:36:42;10.98;;;5.80;;
9304;SDS011;4690;52.422;13.486;2022-10-30T12:39:18;12.02;;;5.30;;
9304;SDS011;4690;52.422;13.486;2022-10-30T12:42:15;16.17;;;5.90;;
9304;SDS011;4690;52.422;13.486;2022-10-30T12:47:42;17.58;;;8.82;;
9304;SDS011;4690;52.422;13.486;2022-10-30T12:50:47;11.77;;;6.07;;
9304;SDS011;4690;52.422;13.486;2022-10-30T12:53:51;25.75;;;13.50;;
9304;SDS011;4690;52.422;13.486;2022-10-30T12:56:36;14.55;;;6.82;;
9304;SDS011;4690;52.422;13.486;2022-10-30T13:04:24;10.20;;;5.45;;
9304;SDS011;4690;52.422;13.486;2022-10-30T13:07:01;13.60;;;5.97;;
9304;SDS011;4690;52.422;13.486;2022-10-30T13:10:33;14.82;;;5.30;;
9304;SDS011;4690;52.422;13.486;2022-10-30T13:13:14;17.23;;;5.97;;
9304;SDS011;4690;52.422;13.486;2022-10-30T13:15:51;9.77;;;5.90;;
9304;SDS011;4690;52.422;13.486;2022-10-30T13:18:21;14.35;;;5.80;;
9304;SDS011;4690;52.422;13.486;2022-10-30T13:30:04;14.75;;;5.90;;
9304;SDS011;4690;52.422;13.486;2022-10-30T13:52:58;12.20;;;5.32;;
9304;SDS011;4690;52.422;13.486;2022-10-30T13:55:30;10.25;;;4.90;;
9304;SDS011;4690;52.422;13.486;2022-10-30T14:15:54;15.00;;;6.20;;
9304;SDS011;4690;52.422;13.486;2022-10-30T14:18:27;12.25;;;5.72;;
9304;SDS011;4690;52.422;13.486;2022-10-30T14:21:31;14.02;;;5.78;;
9304;SDS011;4690;52.422;13.486;2022-10-30T14:24:22;11.45;;;5.30;;
9304;SDS011;4690;52.422;13.486;2022-10-30T14:27:15;10.70;;;5.30;;
9304;SDS011;4690;52.422;13.486;2022-10-30T14:29:50;9.95;;;5.40;;
9304;SDS011;4690;52.422;13.486;2022-10-30T14:39:51;10.07;;;6.18;;
9304;SDS011;4690;52.422;13.486;2022-10-30T14:56:29;9.38;;;5.68;;
9304;SDS011;4690;52.422;13.486;2022-10-30T15:07:59;14.07;;;7.60;;
9304;SDS011;4690;52.422;13.486;2022-10-30T15:13:55;12.43;;;7.38;;
9304;SDS011;4690;52.422;13.486;2022-10-30T15:16:26;9.93;;;7.90;;
9304;SDS011;4690;52.422;13.486;2022-10-30T15:19:02;9.73;;;7.32;;
9304;SDS011;4690;52.422;13.486;2022-10-30T15:21:33;9.82;;;6.47;;
9304;SDS011;4690;52.422;13.486;2022-10-30T15:24:16;9.45;;;6.72;;
9304;SDS011;4690;52.422;13.486;2022-10-30T15:26:47;7.82;;;6.28;;
9304;SDS011;4690;52.422;13.486;2022-10-30T15:29:23;9.10;;;6.45;;
9304;SDS011;4690;52.422;13.486;2022-10-30T15:34:26;13.07;;;7.80;;
9304;SDS011;4690;52.422;13.486;2022-10-30T15:36:54;11.70;;;7.40;;
9304;SDS011;4690;52.422;13.486;2022-10-30T15:39:20;15.77;;;8.13;;
9304;SDS011;4690;52.422;13.486;2022-10-30T15:41:53;11.07;;;8.65;;
9304;SDS011;4690;52.422;13.486;2022-10-30T15:44:27;13.15;;;9.43;;
9304;SDS011;4690;52.422;13.486;2022-10-30T15:46:58;10.98;;;8.32;;
9304;SDS011;4690;52.422;13.486;2022-10-30T15:49:29;14.85;;;9.10;;
9304;SDS011;4690;52.422;13.486;2022-10-30T15:51:59;12.40;;;9.00;;
9304;SDS011;4690;52.422;13.486;2022-10-30T15:55:02;14.05;;;8.57;;
9304;SDS011;4690;52.422;13.486;2022-10-30T15:57:35;10.88;;;7.82;;
9304;SDS011;4690;52.422;13.486;2022-10-30T16:03:01;9.88;;;7.60;;
9304;SDS011;4690;52.422;13.486;2022-10-30T16:05:40;14.48;;;9.65;;
9304;SDS011;4690;52.422;13.486;2022-10-30T16:08:19;16.45;;;8.70;;
9304;SDS011;4690;52.422;13.486;2022-10-30T16:10:48;11.43;;;9.65;;
9304;SDS011;4690;52.422;13.486;2022-10-30T16:13:19;13.20;;;8.98;;
9304;SDS011;4690;52.422;13.486;2022-10-30T16:15:55;12.65;;;9.57;;
9304;SDS011;4690;52.422;13.486;2022-10-30T16:18:22;11.68;;;9.25;;
9304;SDS011;4690;52.422;13.486;2022-10-30T16:20:55;12.43;;;9.05;;
9304;SDS011;4690;52.422;13.486;2022-10-30T16:23:26;13.30;;;9.82;;
9304;SDS011;4690;52.422;13.486;2022-10-30T16:26:00;13.48;;;9.57;;
9304;SDS011;4690;52.422;13.486;2022-10-30T16:28:35;11.93;;;9.45;;
9304;SDS011;4690;52.422;13.486;2022-10-30T16:31:03;13.70;;;10.27;;
9304;SDS011;4690;52.422;13.486;2022-10-30T16:33:32;15.27;;;12.50;;
9304;SDS011;4690;52.422;13.486;2022-10-30T16:36:01;19.98;;;12.63;;
9304;SDS011;4690;52.422;13.486;2022-10-30T16:38:30;20.92;;;13.98;;
9304;SDS011;4690;52.422;13.486;2022-10-30T16:41:05;26.27;;;17.13;;
9304;SDS011;4690;52.422;13.486;2022-10-30T16:43:37;25.63;;;18.67;;
9304;SDS011;4690;52.422;13.486;2022-10-30T16:48:38;21.13;;;16.42;;
9304;SDS011;4690;52.422;13.486;2022-10-30T16:51:16;19.65;;;16.02;;
9304;SDS011;4690;52.422;13.486;2022-10-30T16:53:46;20.92;;;15.82;;
9304;SDS011;4690;52.422;13.486;2022-10-30T16:56:30;22.15;;;17.00;;
9304;SDS011;4690;52.422;13.486;2022-10-30T16:59:04;20.25;;;16.23;;
9304;SDS011;4690;52.422;13.486;2022-10-30T17:01:41;22.42;;;17.27;;
9304;SDS011;4690;52.422;13.486;2022-10-30T17:04:11;24.98;;;20.55;;
9304;SDS011;4690;52.422;13.486;2022-10-30T17:06:41;29.17;;;20.10;;
9304;SDS011;4690;52.422;13.486;2022-10-30T17:09:33;26.83;;;20.35;;
9304;SDS011;4690;52.422;13.486;2022-10-30T17:12:10;25.55;;;19.45;;
9304;SDS011;4690;52.422;13.486;2022-10-30T17:22:28;25.73;;;20.65;;
9304;SDS011;4690;52.422;13.486;2022-10-30T17:24:54;24.20;;;20.15;;
9304;SDS011;4690;52.422;13.486;2022-10-30T17:29:57;23.77;;;20.10;;
9304;SDS011;4690;52.422;13.486;2022-10-30T17:32:26;23.63;;;20.30;;
9304;SDS011;4690;52.422;13.486;2022-10-30T17:37:43;24.85;;;20.10;;
9304;SDS011;4690;52.422;13.486;2022-10-30T17:40:09;24.27;;;19.20;;
9304;SDS011;4690;52.422;13.486;2022-10-30T17:42:36;22.52;;;18.60;;
9304;SDS011;4690;52.422;13.486;2022-10-30T17:45:04;22.55;;;18.92;;
9304;SDS011;4690;52.422;13.486;2022-10-30T17:47:34;23.70;;;18.90;;
9304;SDS011;4690;52.422;13.486;2022-10-30T17:50:01;30.13;;;21.58;;
9304;SDS011;4690;52.422;13.486;2022-10-30T17:52:29;32.33;;;22.48;;
9304;SDS011;4690;52.422;13.486;2022-10-30T17:54:56;29.17;;;22.92;;
9304;SDS011;4690;52.422;13.486;2022-10-30T17:57:22;35.00;;;25.45;;
9304;SDS011;4690;52.422;13.486;2022-10-30T17:59:50;43.58;;;31.85;;
9304;SDS011;4690;52.422;13.486;2022-10-30T18:02:18;43.45;;;30.52;;
9304;SDS011;4690;52.422;13.486;2022-10-30T18:04:46;39.20;;;28.52;;